Flight Track Log - Related Links

Times and Time Zones

All times are in EST time to prevent confusion due to time zone crossing. See the D-ABMP flight status page for this flight to view local times or setup timezone preferences in your user account.


Time Position Orientation Groundspeed Altitude Reporting Facility
EST Latitude Longitude Course Direction KTS MPH feet Rate Location/Type
Mon 12:57:00 AM 51.8470 9.3619 70° East  Level Estimated
Mon 12:58:00 AM 51.8747 9.5003 72° East  Level Estimated
Mon 12:59:00 AM 51.9023 9.6388 72° East  Level Estimated
Mon 01:00:00 AM 51.9297 9.7774 72° East  Level Estimated
Mon 01:01:00 AM 51.9570 9.9163 72° East  Level Estimated
Mon 01:02:00 AM 51.9841 10.0553 72° East  Level Estimated
Mon 01:03:00 AM 52.0110 10.1945 72° East  Level Estimated
Mon 01:04:00 AM 52.0377 10.3338 73° East  Level Estimated
Mon 01:05:00 AM 52.0643 10.4733 73° East  Level Estimated
Mon 01:06:00 AM 52.0908 10.6130 73° East  Level Estimated
Mon 01:07:00 AM 52.1171 10.7528 73° East  Level Estimated
Mon 01:08:00 AM 52.1432 10.8928 73° East  Level Estimated
Mon 01:09:00 AM 52.1691 11.0330 73° East  Level Estimated
Mon 01:10:00 AM 52.1949 11.1734 73° East  Level Estimated
Mon 01:11:00 AM 52.2205 11.3138 73° East  Level Estimated
Mon 01:12:00 AM 52.2459 11.4545 73° East  Level Estimated
Mon 01:13:00 AM 52.2712 11.5953 74° East  Level Estimated
Mon 01:14:00 AM 52.2963 11.7363 74° East  Level Estimated
Mon 01:15:00 AM 52.3212 11.8774 74° East  Level Estimated
Mon 01:16:00 AM 52.3460 12.0187 74° East  Level Estimated
Mon 01:17:00 AM 52.3706 12.1602 74° East  Level Estimated
Mon 01:18:00 AM 52.3950 12.3018 74° East  Level Estimated
Mon 01:19:00 AM 52.4193 12.4436 74° East  Level Estimated
Mon 01:20:00 AM 52.4434 12.5855 74° East  Level Estimated
Mon 01:21:00 AM 52.4673 12.7276 74° East  Level Estimated
Mon 01:22:00 AM 52.4910 12.8698 75° East  Level Estimated
Mon 01:23:00 AM 52.5146 13.0122 75° East  Level Estimated
Mon 01:24:00 AM 52.5380 13.1547 75° East  Level Estimated
Mon 01:25:00 AM 52.5597 13.2877 75° East  Level Estimated
Mon 01:26:00 AM 52.5597 13.2877 171° South  Level Estimated
Mon 01:27:00 AM 52.5597 13.2877 171° South  Level Estimated
Mon 01:28:00 AM 52.5597 13.2877 171° South  Level Estimated
Mon 01:29:00 AM 52.5597 13.2877 171° South  Level Estimated
Mon 01:30:00 AM 52.5597 13.2877 171° South  Level Estimated
Mon 01:31:00 AM 52.5597 13.2877 171° South  Level Estimated
Mon 01:32:00 AM 52.5597 13.2877 171° South  Level Estimated
Mon 01:33:00 AM 52.5597 13.2877 171° South  Level Estimated
Mon 01:34:00 AM 52.5597 13.2877 171° South  Level Estimated

Login

Don't have an account? Register now (free) for customized features, flight alerts, and more!